Time;durP1;ratioP1;P1;durP2;ratioP2;P2;SDS_P1;SDS_P2;PMS_P1;PMS_P2;Temp;Humidity;BMP_temperature;BMP_pressure;BME280_temperature;BME280_humidity;BME280_pressure;Samples;Min_cycle;Max_cycle;Signal;HPM_P1;HPM_P2
2021/01/23 00:02:07;;;;;;;5.05;2.88;;;;;;;;;;5015935;28;20104;-44
2021/01/23 00:04:33;;;;;;;9.68;4.78;;;;;;;;;;5023191;28;20084;-45
2021/01/23 00:06:58;;;;;;;9.45;6.05;;;;;;;;;;5012565;28;20100;-47
2021/01/23 00:09:23;;;;;;;7.00;5.72;;;;;;;;;;5014388;28;20531;-45
2021/01/23 00:11:49;;;;;;;7.15;4.03;;;;;;;;;;5013415;28;20488;-45
2021/01/23 00:14:14;;;;;;;13.93;6.32;;;;;;;;;;5015258;28;20808;-45
2021/01/23 00:16:39;;;;;;;8.57;3.75;;;;;;;;;;5010547;28;20037;-45
2021/01/23 00:19:05;;;;;;;8.15;3.05;;;;;;;;;;5015017;28;20026;-47
2021/01/23 00:21:30;;;;;;;5.03;2.17;;;;;;;;;;5012589;28;20524;-46
2021/01/23 00:23:55;;;;;;;8.48;1.67;;;;;;;;;;5011110;28;20034;-43
2021/01/23 00:26:20;;;;;;;3.17;2.25;;;;;;;;;;5018463;28;20092;-46
2021/01/23 00:28:46;;;;;;;6.25;3.25;;;;;;;;;;5012411;28;20034;-49
2021/01/23 00:31:12;;;;;;;3.20;1.88;;;;;;;;;;5017834;28;20092;-43
2021/01/23 00:33:38;;;;;;;3.17;1.77;;;;;;;;;;5024458;28;20037;-42
2021/01/23 00:36:03;;;;;;;7.63;2.33;;;;;;;;;;5012591;28;20393;-46
2021/01/23 00:38:28;;;;;;;8.93;3.05;;;;;;;;;;5013729;28;20049;-43
2021/01/23 00:40:54;;;;;;;10.48;2.20;;;;;;;;;;5011790;28;20034;-41
2021/01/23 00:43:19;;;;;;;15.65;2.25;;;;;;;;;;5015042;28;20086;-44
2021/01/23 00:45:44;;;;;;;5.53;3.45;;;;;;;;;;5013806;28;20049;-42
2021/01/23 00:48:10;;;;;;;4.95;1.60;;;;;;;;;;5016504;28;20116;-41
2021/01/23 00:50:35;;;;;;;13.02;2.42;;;;;;;;;;5020316;28;20032;-44
2021/01/23 00:53:01;;;;;;;12.82;3.88;;;;;;;;;;5017870;28;20365;-48
2021/01/23 00:55:26;;;;;;;12.82;3.65;;;;;;;;;;5015031;28;20060;-45
2021/01/23 00:57:51;;;;;;;3.88;1.73;;;;;;;;;;5021219;28;20038;-45
2021/01/23 01:00:17;;;;;;;11.27;6.78;;;;;;;;;;5026285;28;20042;-44
2021/01/23 01:02:42;;;;;;;14.85;5.20;;;;;;;;;;5011373;28;20033;-44
2021/01/23 01:05:08;;;;;;;3.00;1.70;;;;;;;;;;5014272;28;20080;-44
2021/01/23 01:07:33;;;;;;;6.13;3.05;;;;;;;;;;5014161;28;20041;-44
2021/01/23 01:09:58;;;;;;;6.47;3.45;;;;;;;;;;5012572;28;20017;-43
2021/01/23 01:12:24;;;;;;;6.68;3.00;;;;;;;;;;5014419;28;20384;-41
2021/01/23 01:14:49;;;;;;;5.78;2.20;;;;;;;;;;5012363;28;20026;-46
2021/01/23 01:17:14;;;;;;;3.97;1.67;;;;;;;;;;5012766;28;20041;-42
2021/01/23 01:19:40;;;;;;;7.95;2.03;;;;;;;;;;5014224;28;20026;-42
2021/01/23 01:22:05;;;;;;;5.03;1.13;;;;;;;;;;5018151;28;20128;-47
2021/01/23 01:24:30;;;;;;;3.80;1.13;;;;;;;;;;5025608;28;20116;-51
2021/01/23 01:26:55;;;;;;;6.15;2.13;;;;;;;;;;5036495;28;20037;-43
2021/01/23 01:29:21;;;;;;;11.25;2.40;;;;;;;;;;5034305;28;20122;-43
2021/01/23 01:31:46;;;;;;;19.75;3.97;;;;;;;;;;5018776;28;20616;-46
2021/01/23 01:34:11;;;;;;;5.97;2.47;;;;;;;;;;5037244;28;20063;-44
2021/01/23 01:36:37;;;;;;;4.03;2.03;;;;;;;;;;5041380;28;20037;-41
2021/01/23 01:39:02;;;;;;;5.30;2.15;;;;;;;;;;5037313;28;20526;-47
2021/01/23 01:41:27;;;;;;;5.65;1.75;;;;;;;;;;5034922;28;20031;-42
2021/01/23 01:43:53;;;;;;;4.47;1.10;;;;;;;;;;5027366;28;20029;-42
2021/01/23 01:46:18;;;;;;;3.03;1.48;;;;;;;;;;5014615;28;20053;-45
2021/01/23 01:48:46;;;;;;;9.85;1.55;;;;;;;;;;5012627;28;20491;-43
2021/01/23 01:51:11;;;;;;;5.47;1.23;;;;;;;;;;5012683;28;20036;-43
2021/01/23 01:53:41;;;;;;;5.18;1.35;;;;;;;;;;5013879;28;20049;-43
2021/01/23 01:56:07;;;;;;;5.28;1.38;;;;;;;;;;5012415;28;20038;-44
2021/01/23 01:58:32;;;;;;;1.65;0.65;;;;;;;;;;5018255;28;20030;-45
2021/01/23 02:00:58;;;;;;;5.53;0.95;;;;;;;;;;5011991;28;20026;-42
2021/01/23 02:03:34;;;;;;;2.03;0.98;;;;;;;;;;5013045;28;20353;-44
2021/01/23 02:06:18;;;;;;;3.90;1.88;;;;;;;;;;5012823;28;20030;-43
2021/01/23 02:08:53;;;;;;;2.42;1.45;;;;;;;;;;5015518;28;20025;-43
2021/01/23 02:11:37;;;;;;;2.35;1.38;;;;;;;;;;5015642;28;20034;-48
2021/01/23 02:14:05;;;;;;;2.30;1.70;;;;;;;;;;5013340;28;20044;-45
2021/01/23 02:16:34;;;;;;;6.40;1.23;;;;;;;;;;5014112;28;20045;-47
2021/01/23 02:19:02;;;;;;;13.13;1.67;;;;;;;;;;5023051;28;20025;-48
2021/01/23 02:21:36;;;;;;;2.92;1.17;;;;;;;;;;5015252;28;20034;-43
2021/01/23 02:24:02;;;;;;;5.15;0.88;;;;;;;;;;5011963;28;20022;-45
2021/01/23 02:26:46;;;;;;;3.28;1.02;;;;;;;;;;5012871;28;20037;-42
2021/01/23 02:29:32;;;;;;;8.35;2.15;;;;;;;;;;5013325;28;20415;-44
2021/01/23 02:31:59;;;;;;;1.55;0.93;;;;;;;;;;5012732;28;20041;-48
2021/01/23 02:34:25;;;;;;;2.28;1.55;;;;;;;;;;5013979;28;20025;-44
2021/01/23 02:36:51;;;;;;;2.88;1.95;;;;;;;;;;5013116;28;20442;-43
2021/01/23 02:39:17;;;;;;;3.70;1.13;;;;;;;;;;5013922;28;20036;-45
2021/01/23 02:41:43;;;;;;;1.80;1.17;;;;;;;;;;5013228;28;20025;-44
2021/01/23 02:44:09;;;;;;;9.63;2.38;;;;;;;;;;5012032;28;20518;-42
2021/01/23 02:46:34;;;;;;;5.30;1.17;;;;;;;;;;5011651;28;20058;-43
2021/01/23 02:48:59;;;;;;;3.90;0.98;;;;;;;;;;5012512;28;20037;-44
2021/01/23 02:51:33;;;;;;;6.95;0.82;;;;;;;;;;5019048;28;20080;-42
2021/01/23 02:54:03;;;;;;;4.70;1.73;;;;;;;;;;5016226;28;20512;-43
2021/01/23 02:56:29;;;;;;;22.37;2.67;;;;;;;;;;5017356;28;20700;-42
2021/01/23 02:58:56;;;;;;;4.57;1.35;;;;;;;;;;5015028;28;20814;-42
2021/01/23 03:01:23;;;;;;;9.00;2.65;;;;;;;;;;5021257;28;20049;-45
2021/01/23 03:03:52;;;;;;;5.28;2.28;;;;;;;;;;5015082;28;20480;-45
2021/01/23 03:06:17;;;;;;;5.95;1.88;;;;;;;;;;5032167;28;20040;-47
2021/01/23 03:08:43;;;;;;;9.95;2.63;;;;;;;;;;5015982;28;20021;-45
2021/01/23 03:11:09;;;;;;;4.57;2.35;;;;;;;;;;5016023;28;20060;-42
2021/01/23 03:13:34;;;;;;;6.03;1.92;;;;;;;;;;5014957;28;20105;-43
2021/01/23 03:16:00;;;;;;;8.60;2.25;;;;;;;;;;5015640;28;20084;-42
2021/01/23 03:18:25;;;;;;;8.20;2.95;;;;;;;;;;5016895;28;20022;-44
2021/01/23 03:20:50;;;;;;;8.90;3.35;;;;;;;;;;5014537;28;20022;-42
2021/01/23 03:23:16;;;;;;;4.45;2.15;;;;;;;;;;5020288;28;20073;-43
2021/01/23 03:25:41;;;;;;;14.02;2.70;;;;;;;;;;5014547;28;20041;-49
2021/01/23 03:28:06;;;;;;;9.63;3.25;;;;;;;;;;5015859;28;20034;-42
2021/01/23 03:30:32;;;;;;;13.57;3.45;;;;;;;;;;5015919;28;20053;-44
2021/01/23 03:32:57;;;;;;;21.30;3.72;;;;;;;;;;5014168;28;20041;-49
2021/01/23 03:35:22;;;;;;;5.80;1.67;;;;;;;;;;5015454;28;20044;-48
2021/01/23 03:37:48;;;;;;;3.42;1.52;;;;;;;;;;5013989;28;20077;-47
2021/01/23 03:40:14;;;;;;;9.52;3.03;;;;;;;;;;5014695;28;20487;-48
2021/01/23 03:42:39;;;;;;;5.43;2.03;;;;;;;;;;5015304;28;20025;-47
2021/01/23 03:45:06;;;;;;;7.32;3.67;;;;;;;;;;5013786;28;20050;-46
2021/01/23 03:47:31;;;;;;;4.00;1.63;;;;;;;;;;5015953;28;20099;-50
2021/01/23 03:49:56;;;;;;;8.93;1.55;;;;;;;;;;5020846;28;20025;-42
2021/01/23 03:52:22;;;;;;;9.50;1.42;;;;;;;;;;5016228;28;20090;-44
2021/01/23 03:54:47;;;;;;;7.28;1.50;;;;;;;;;;5013924;28;20076;-45
2021/01/23 03:57:12;;;;;;;10.07;2.42;;;;;;;;;;5015484;28;20475;-46
2021/01/23 03:59:38;;;;;;;2.20;1.38;;;;;;;;;;5015904;28;20590;-42
2021/01/23 04:02:04;;;;;;;5.93;1.13;;;;;;;;;;5013416;28;20444;-46
2021/01/23 04:04:29;;;;;;;3.78;1.77;;;;;;;;;;4998569;28;20438;-42
2021/01/23 04:06:55;;;;;;;4.38;2.78;;;;;;;;;;5014193;28;20049;-44
2021/01/23 04:09:20;;;;;;;10.85;2.55;;;;;;;;;;5016503;28;20037;-43
2021/01/23 04:11:45;;;;;;;7.32;2.38;;;;;;;;;;5013954;28;20026;-44
2021/01/23 04:14:11;;;;;;;3.25;1.33;;;;;;;;;;5014336;28;20022;-44
2021/01/23 04:16:37;;;;;;;13.18;2.85;;;;;;;;;;5013185;28;20133;-43
2021/01/23 04:19:02;;;;;;;5.88;2.65;;;;;;;;;;5014360;28;20041;-46
2021/01/23 04:21:27;;;;;;;7.82;2.63;;;;;;;;;;5015455;28;20026;-46
2021/01/23 04:23:53;;;;;;;8.60;3.17;;;;;;;;;;5011831;28;20026;-48
2021/01/23 04:26:18;;;;;;;3.50;2.28;;;;;;;;;;5013615;28;20042;-45
2021/01/23 04:28:43;;;;;;;6.05;2.13;;;;;;;;;;5028274;28;20029;-47
2021/01/23 04:31:09;;;;;;;7.95;1.90;;;;;;;;;;5019956;28;20076;-42
2021/01/23 04:33:34;;;;;;;9.32;2.28;;;;;;;;;;5013560;28;20754;-47
2021/01/23 04:36:00;;;;;;;7.15;2.28;;;;;;;;;;5013838;28;20048;-45
2021/01/23 04:38:25;;;;;;;6.25;2.15;;;;;;;;;;5014774;28;20041;-43
2021/01/23 04:40:51;;;;;;;4.72;3.03;;;;;;;;;;5013133;28;20349;-43
2021/01/23 04:43:16;;;;;;;4.75;2.55;;;;;;;;;;5013448;28;20030;-47
2021/01/23 04:45:41;;;;;;;18.17;2.45;;;;;;;;;;5001455;28;20080;-46
2021/01/23 04:48:07;;;;;;;17.08;2.53;;;;;;;;;;5012359;28;20107;-42
2021/01/23 04:50:32;;;;;;;8.70;2.30;;;;;;;;;;5018233;28;20056;-46
2021/01/23 04:52:57;;;;;;;10.65;2.67;;;;;;;;;;5013538;28;20104;-43
2021/01/23 04:55:23;;;;;;;4.70;1.13;;;;;;;;;;5013052;28;20142;-44
2021/01/23 04:57:48;;;;;;;16.52;2.45;;;;;;;;;;5015708;28;20055;-46
2021/01/23 05:00:13;;;;;;;7.60;2.08;;;;;;;;;;5016744;28;20463;-45
2021/01/23 05:02:39;;;;;;;11.25;1.98;;;;;;;;;;5013284;28;20017;-44
2021/01/23 05:05:05;;;;;;;19.00;1.83;;;;;;;;;;5015221;28;20071;-46
2021/01/23 05:07:37;;;;;;;9.65;2.65;;;;;;;;;;5012974;28;20372;-45
2021/01/23 05:10:12;;;;;;;9.25;1.58;;;;;;;;;;5011446;28;20690;-45
2021/01/23 05:12:38;;;;;;;5.85;2.63;;;;;;;;;;5015963;28;20021;-45
2021/01/23 05:15:05;;;;;;;3.97;1.20;;;;;;;;;;5014378;28;20033;-45
2021/01/23 05:17:30;;;;;;;13.35;2.80;;;;;;;;;;4995679;28;20044;-44
2021/01/23 05:19:56;;;;;;;12.88;2.22;;;;;;;;;;5011764;28;20026;-45
2021/01/23 05:22:21;;;;;;;11.60;2.10;;;;;;;;;;5012702;28;20096;-45
2021/01/23 05:24:50;;;;;;;6.85;1.40;;;;;;;;;;5011865;28;20030;-47
2021/01/23 05:27:16;;;;;;;4.80;1.77;;;;;;;;;;5016087;28;20025;-48
2021/01/23 05:29:57;;;;;;;13.82;3.08;;;;;;;;;;5016367;28;20480;-46
2021/01/23 05:32:23;;;;;;;;;;;;;;;;;;5015012;28;20025;-47
2021/01/23 05:34:48;;;;;;;4.70;1.33;;;;;;;;;;5011308;28;19964;-43
2021/01/23 05:37:29;;;;;;;3.97;1.85;;;;;;;;;;5011277;28;20026;-44
2021/01/23 05:39:55;;;;;;;;;;;;;;;;;;5011968;28;20054;-43
2021/01/23 05:42:20;;;;;;;3.50;0.90;;;;;;;;;;5017308;28;19975;-44
2021/01/23 05:45:04;;;;;;;7.32;3.25;;;;;;;;;;5011667;28;20054;-47
2021/01/23 05:47:30;;;;;;;6.47;1.58;;;;;;;;;;5012710;28;20626;-47
2021/01/23 05:49:55;;;;;;;14.27;2.55;;;;;;;;;;5014249;28;20112;-45
2021/01/23 05:52:21;;;;;;;13.30;3.22;;;;;;;;;;5012525;28;20022;-47
2021/01/23 05:54:46;;;;;;;6.75;2.03;;;;;;;;;;5014984;28;20108;-44
2021/01/23 05:57:12;;;;;;;6.30;2.60;;;;;;;;;;5014640;28;20035;-45
2021/01/23 05:59:41;;;;;;;3.80;2.22;;;;;;;;;;5009866;28;20030;-47
2021/01/23 06:02:08;;;;;;;16.45;1.65;;;;;;;;;;5012427;28;20033;-47
2021/01/23 06:04:34;;;;;;;11.65;3.40;;;;;;;;;;5013024;28;20112;-40
2021/01/23 06:06:59;;;;;;;2.85;1.45;;;;;;;;;;5012626;28;20409;-40
2021/01/23 06:09:38;;;;;;;16.25;2.95;;;;;;;;;;5014314;28;20060;-40
2021/01/23 06:12:04;;;;;;;3.20;1.05;;;;;;;;;;5012486;28;20030;-45
2021/01/23 06:14:39;;;;;;;8.25;2.05;;;;;;;;;;5012681;28;20037;-45
2021/01/23 06:17:05;;;;;;;10.65;3.25;;;;;;;;;;5011317;28;20443;-45
2021/01/23 06:19:30;;;;;;;6.53;2.13;;;;;;;;;;5013186;28;20022;-45
2021/01/23 06:21:55;;;;;;;13.18;1.92;;;;;;;;;;5011443;28;20028;-44
2021/01/23 06:24:30;;;;;;;9.10;2.35;;;;;;;;;;5013080;28;20057;-45
2021/01/23 06:26:55;;;;;;;7.45;2.47;;;;;;;;;;5015690;28;20101;-41
2021/01/23 06:29:30;;;;;;;10.52;1.85;;;;;;;;;;5016592;28;20113;-43
2021/01/23 06:31:56;;;;;;;9.23;2.28;;;;;;;;;;5015943;28;20030;-42
2021/01/23 06:34:25;;;;;;;6.57;2.35;;;;;;;;;;5017467;28;20128;-43
2021/01/23 06:37:10;;;;;;;17.00;4.07;;;;;;;;;;5016488;28;20148;-42
2021/01/23 06:39:55;;;;;;;8.10;2.65;;;;;;;;;;5020490;28;20713;-43
2021/01/23 06:42:21;;;;;;;7.15;2.08;;;;;;;;;;5016710;28;20180;-42
2021/01/23 06:44:46;;;;;;;3.45;2.05;;;;;;;;;;5014940;28;20551;-42
2021/01/23 06:47:11;;;;;;;2.88;2.05;;;;;;;;;;5015273;28;20052;-42
2021/01/23 06:49:40;;;;;;;6.10;2.00;;;;;;;;;;5017021;28;20025;-44
2021/01/23 06:52:06;;;;;;;11.70;1.77;;;;;;;;;;5014709;28;20458;-44
2021/01/23 06:54:31;;;;;;;5.88;2.50;;;;;;;;;;5020143;28;20030;-46
2021/01/23 06:56:57;;;;;;;6.97;3.15;;;;;;;;;;5023571;28;20037;-40
2021/01/23 06:59:32;;;;;;;20.63;3.72;;;;;;;;;;5017000;28;20047;-46
2021/01/23 07:02:02;;;;;;;4.47;1.92;;;;;;;;;;5015484;28;20421;-41
2021/01/23 07:04:29;;;;;;;19.33;3.00;;;;;;;;;;5015815;28;20112;-45
2021/01/23 07:06:55;;;;;;;3.05;1.77;;;;;;;;;;5014805;28;20370;-46
2021/01/23 07:09:41;;;;;;;7.90;2.58;;;;;;;;;;5016849;28;20367;-44
2021/01/23 07:12:06;;;;;;;9.40;2.95;;;;;;;;;;5016476;28;20172;-43
2021/01/23 07:14:31;;;;;;;1.88;1.10;;;;;;;;;;5016479;28;20862;-44
2021/01/23 07:16:56;;;;;;;6.40;3.53;;;;;;;;;;5015934;28;20046;-41
2021/01/23 07:19:25;;;;;;;18.85;3.97;;;;;;;;;;5018918;28;20022;-41
2021/01/23 07:21:51;;;;;;;2.20;1.70;;;;;;;;;;5016537;28;20033;-41
2021/01/23 07:24:16;;;;;;;15.77;4.50;;;;;;;;;;5015330;28;20021;-45
2021/01/23 07:26:41;;;;;;;15.20;3.13;;;;;;;;;;5013686;28;20033;-44
2021/01/23 07:29:08;;;;;;;12.45;2.72;;;;;;;;;;5015400;28;20092;-42
2021/01/23 07:31:33;;;;;;;14.80;3.90;;;;;;;;;;5016158;28;20404;-43
2021/01/23 07:34:00;;;;;;;10.77;3.97;;;;;;;;;;5019388;28;20033;-42
2021/01/23 07:36:44;;;;;;;11.30;2.92;;;;;;;;;;5013998;28;20068;-42
2021/01/23 07:39:09;;;;;;;5.88;2.70;;;;;;;;;;5015730;28;20461;-45
2021/01/23 07:41:35;;;;;;;5.90;2.67;;;;;;;;;;5016272;28;20029;-42
2021/01/23 07:44:02;;;;;;;12.18;2.25;;;;;;;;;;5014306;28;20026;-45
2021/01/23 07:46:35;;;;;;;7.93;2.13;;;;;;;;;;5014575;28;20049;-42
2021/01/23 07:49:00;;;;;;;4.30;2.45;;;;;;;;;;5013382;28;20411;-43
2021/01/23 07:51:26;;;;;;;7.80;2.55;;;;;;;;;;5017332;28;20022;-43
2021/01/23 07:54:03;;;;;;;12.32;2.50;;;;;;;;;;5014897;28;20021;-47
2021/01/23 07:56:29;;;;;;;23.63;2.42;;;;;;;;;;5018656;28;20159;-43
2021/01/23 07:58:54;;;;;;;12.70;3.10;;;;;;;;;;5021184;28;20121;-45
2021/01/23 08:01:19;;;;;;;6.22;2.10;;;;;;;;;;5014684;28;20445;-45
2021/01/23 08:03:45;;;;;;;13.57;2.95;;;;;;;;;;5014266;28;20487;-44
2021/01/23 08:06:20;;;;;;;14.40;3.63;;;;;;;;;;5015468;28;20123;-43
2021/01/23 08:08:45;;;;;;;18.77;2.33;;;;;;;;;;5017722;28;20029;-48
2021/01/23 08:11:30;;;;;;;6.47;2.15;;;;;;;;;;5014749;28;20075;-44
2021/01/23 08:14:05;;;;;;;8.77;3.20;;;;;;;;;;5014008;28;20034;-45
2021/01/23 08:16:31;;;;;;;19.98;2.65;;;;;;;;;;5017387;28;20071;-48
2021/01/23 08:19:06;;;;;;;6.68;2.65;;;;;;;;;;5013976;28;20065;-45
2021/01/23 08:21:32;;;;;;;4.10;3.45;;;;;;;;;;5017303;28;20033;-44
2021/01/23 08:23:57;;;;;;;7.40;1.98;;;;;;;;;;5029956;28;20075;-41
2021/01/23 08:26:35;;;;;;;6.68;2.70;;;;;;;;;;5025712;28;20029;-45
2021/01/23 08:29:01;;;;;;;9.02;2.15;;;;;;;;;;5023453;28;20038;-60
2021/01/23 08:31:26;;;;;;;18.15;6.63;;;;;;;;;;5020960;28;20344;-62
2021/01/23 08:33:54;;;;;;;20.80;5.85;;;;;;;;;;5009911;28;20029;-62
2021/01/23 08:36:19;;;;;;;21.15;10.98;;;;;;;;;;5025701;28;20033;-66
2021/01/23 08:38:45;;;;;;;6.93;3.55;;;;;;;;;;5026563;28;20049;-64
2021/01/23 08:41:10;;;;;;;24.10;6.55;;;;;;;;;;5025415;28;20501;-60
2021/01/23 08:43:36;;;;;;;18.13;11.02;;;;;;;;;;5026457;28;20025;-62
2021/01/23 08:46:01;;;;;;;9.32;4.53;;;;;;;;;;5015070;28;20112;-62
2021/01/23 08:48:26;;;;;;;21.38;5.40;;;;;;;;;;5014059;28;20566;-63
2021/01/23 08:50:52;;;;;;;20.27;6.47;;;;;;;;;;5017681;28;20024;-65
2021/01/23 08:53:17;;;;;;;12.95;3.70;;;;;;;;;;5029271;28;20072;-61
2021/01/23 08:55:42;;;;;;;2.83;2.10;;;;;;;;;;5027983;28;20092;-62
2021/01/23 08:58:08;;;;;;;16.45;2.92;;;;;;;;;;5024292;28;20108;-64
2021/01/23 09:00:33;;;;;;;10.25;3.95;;;;;;;;;;5017468;28;20045;-64
2021/01/23 09:03:00;;;;;;;9.07;2.75;;;;;;;;;;5013842;28;20026;-62
2021/01/23 09:05:25;;;;;;;7.05;2.30;;;;;;;;;;5015584;28;20022;-61
2021/01/23 09:07:51;;;;;;;4.00;3.03;;;;;;;;;;5020748;28;20472;-60
2021/01/23 09:10:16;;;;;;;7.13;6.50;;;;;;;;;;5024015;28;20056;-62
2021/01/23 09:12:41;;;;;;;12.85;5.03;;;;;;;;;;5019359;28;20404;-69
2021/01/23 09:15:07;;;;;;;7.43;4.85;;;;;;;;;;5023828;28;20033;-59
2021/01/23 09:17:33;;;;;;;9.52;4.53;;;;;;;;;;5010191;28;20116;-63
2021/01/23 09:19:58;;;;;;;5.97;3.15;;;;;;;;;;5009855;28;20695;-63
2021/01/23 09:22:24;;;;;;;11.07;3.20;;;;;;;;;;5012773;28;20440;-63
2021/01/23 09:24:49;;;;;;;17.25;3.67;;;;;;;;;;5011263;28;20025;-62
2021/01/23 09:27:14;;;;;;;3.95;3.28;;;;;;;;;;5011470;28;20022;-63
2021/01/23 09:29:39;;;;;;;7.75;3.40;;;;;;;;;;5010664;28;20666;-63
2021/01/23 09:32:06;;;;;;;4.90;3.85;;;;;;;;;;5013358;28;20024;-61
2021/01/23 09:34:31;;;;;;;10.18;5.15;;;;;;;;;;5014069;28;20034;-62
2021/01/23 09:36:57;;;;;;;15.77;6.82;;;;;;;;;;5014421;28;20436;-61
2021/01/23 09:39:22;;;;;;;12.38;3.42;;;;;;;;;;5014448;28;20064;-60
2021/01/23 09:41:48;;;;;;;7.35;2.85;;;;;;;;;;5015079;28;20476;-62
2021/01/23 09:44:13;;;;;;;3.97;2.13;;;;;;;;;;5013636;28;20045;-61
2021/01/23 09:46:38;;;;;;;8.25;2.65;;;;;;;;;;5013727;28;20467;-60
2021/01/23 09:49:04;;;;;;;8.32;4.30;;;;;;;;;;5011855;28;20026;-62
2021/01/23 09:51:29;;;;;;;7.38;4.13;;;;;;;;;;5014352;28;20025;-61
2021/01/23 09:53:54;;;;;;;5.32;1.95;;;;;;;;;;5012063;28;20412;-61
2021/01/23 09:56:21;;;;;;;8.18;4.38;;;;;;;;;;5015949;28;20042;-61
2021/01/23 09:58:47;;;;;;;12.23;2.08;;;;;;;;;;5013548;28;20037;-63
2021/01/23 10:01:12;;;;;;;10.32;4.50;;;;;;;;;;5007490;28;20030;-62
2021/01/23 10:03:37;;;;;;;7.53;1.52;;;;;;;;;;5011472;28;20399;-61
2021/01/23 10:06:03;;;;;;;2.85;1.13;;;;;;;;;;5013325;28;20029;-63
2021/01/23 10:08:28;;;;;;;13.93;2.75;;;;;;;;;;5013303;28;20022;-61
2021/01/23 10:10:53;;;;;;;6.10;2.45;;;;;;;;;;5011883;28;20021;-61
2021/01/23 10:13:18;;;;;;;12.30;2.88;;;;;;;;;;5012886;28;20113;-62
2021/01/23 10:15:44;;;;;;;5.38;3.42;;;;;;;;;;5011885;28;20375;-61
2021/01/23 10:18:09;;;;;;;6.75;3.45;;;;;;;;;;5012849;28;20029;-60
2021/01/23 10:20:37;;;;;;;7.28;2.10;;;;;;;;;;5013491;28;20028;-62
2021/01/23 10:23:02;;;;;;;11.07;1.48;;;;;;;;;;5011637;28;20038;-62
2021/01/23 10:25:27;;;;;;;11.32;4.13;;;;;;;;;;5017298;28;20079;-61
2021/01/23 10:27:52;;;;;;;7.20;3.28;;;;;;;;;;5014792;28;20748;-62
2021/01/23 10:30:18;;;;;;;15.40;3.72;;;;;;;;;;5012530;28;20037;-62
2021/01/23 10:32:43;;;;;;;10.20;3.95;;;;;;;;;;5027483;28;20423;-62
2021/01/23 10:35:09;;;;;;;8.15;4.30;;;;;;;;;;5029169;28;20013;-62
2021/01/23 10:37:34;;;;;;;9.43;3.50;;;;;;;;;;5027276;28;20068;-60
2021/01/23 10:40:00;;;;;;;5.18;2.90;;;;;;;;;;5025603;28;20017;-61
2021/01/23 10:42:26;;;;;;;7.07;2.85;;;;;;;;;;5027442;28;20073;-62
2021/01/23 10:44:51;;;;;;;5.80;1.90;;;;;;;;;;5031913;28;20056;-59
2021/01/23 10:47:18;;;;;;;2.28;1.27;;;;;;;;;;5027533;28;20080;-62
2021/01/23 10:49:44;;;;;;;28.10;3.47;;;;;;;;;;5031143;28;20075;-59
2021/01/23 10:52:09;;;;;;;11.68;2.70;;;;;;;;;;5026987;28;20410;-61
2021/01/23 10:54:34;;;;;;;22.27;3.63;;;;;;;;;;5023682;28;20034;-61
2021/01/23 10:57:02;;;;;;;11.15;2.78;;;;;;;;;;5012000;28;20037;-62
2021/01/23 10:59:27;;;;;;;5.65;3.03;;;;;;;;;;5018654;28;20021;-60
2021/01/23 11:01:52;;;;;;;9.38;1.65;;;;;;;;;;5017240;28;20067;-61
2021/01/23 11:04:18;;;;;;;11.38;1.77;;;;;;;;;;5016088;28;20502;-61
2021/01/23 11:06:43;;;;;;;14.60;3.72;;;;;;;;;;5011251;28;20610;-65
2021/01/23 11:09:09;;;;;;;29.85;3.42;;;;;;;;;;5012923;28;20030;-62
2021/01/23 11:11:35;;;;;;;9.50;2.72;;;;;;;;;;5009108;28;20549;-63
2021/01/23 11:14:00;;;;;;;2.33;1.92;;;;;;;;;;5012998;28;20045;-63
2021/01/23 11:16:25;;;;;;;9.25;3.53;;;;;;;;;;5012352;28;20038;-59
2021/01/23 11:18:51;;;;;;;7.35;3.35;;;;;;;;;;5032793;28;20034;-61
2021/01/23 11:21:17;;;;;;;11.38;2.78;;;;;;;;;;5029230;28;20032;-61
2021/01/23 11:23:42;;;;;;;3.10;1.23;;;;;;;;;;5030882;28;20062;-61
2021/01/23 11:26:07;;;;;;;10.60;1.45;;;;;;;;;;5020871;28;20452;-61
2021/01/23 11:28:33;;;;;;;3.15;1.63;;;;;;;;;;5019121;28;20443;-61
2021/01/23 11:30:58;;;;;;;11.20;3.50;;;;;;;;;;5025358;28;20104;-60
2021/01/23 11:33:23;;;;;;;3.50;1.63;;;;;;;;;;5015045;28;20029;-62
2021/01/23 11:35:49;;;;;;;7.78;1.45;;;;;;;;;;5017282;28;20047;-61
2021/01/23 11:38:14;;;;;;;10.65;1.88;;;;;;;;;;5021990;28;20037;-62
2021/01/23 11:40:40;;;;;;;8.75;3.05;;;;;;;;;;5021340;28;20014;-61
2021/01/23 11:43:05;;;;;;;19.67;3.15;;;;;;;;;;5022876;28;20025;-60
2021/01/23 11:45:30;;;;;;;13.02;3.38;;;;;;;;;;5020617;28;20793;-63
2021/01/23 11:47:56;;;;;;;6.55;2.25;;;;;;;;;;5022868;28;20065;-60
2021/01/23 11:50:21;;;;;;;9.63;4.30;;;;;;;;;;5023525;28;20498;-59
2021/01/23 11:52:46;;;;;;;13.48;4.75;;;;;;;;;;5024133;28;20025;-63
2021/01/23 11:55:12;;;;;;;6.28;1.38;;;;;;;;;;5024697;28;20025;-60
2021/01/23 11:57:37;;;;;;;4.22;1.20;;;;;;;;;;5023101;28;20503;-61
2021/01/23 12:00:04;;;;;;;14.38;2.30;;;;;;;;;;5027086;28;20100;-61
2021/01/23 12:02:29;;;;;;;5.13;2.40;;;;;;;;;;5020812;28;20061;-59
2021/01/23 12:04:54;;;;;;;7.03;1.80;;;;;;;;;;5013554;28;20111;-61
2021/01/23 12:07:20;;;;;;;5.30;2.35;;;;;;;;;;5018788;28;20029;-63
2021/01/23 12:09:46;;;;;;;4.05;2.13;;;;;;;;;;5014144;28;20029;-61
2021/01/23 12:12:11;;;;;;;6.13;1.70;;;;;;;;;;5014470;28;20030;-54
2021/01/23 12:14:36;;;;;;;7.25;1.95;;;;;;;;;;5013165;28;20022;-58
2021/01/23 12:17:02;;;;;;;7.13;2.70;;;;;;;;;;5014349;28;20050;-56
2021/01/23 12:19:27;;;;;;;7.07;2.25;;;;;;;;;;5015701;28;20040;-61
2021/01/23 12:21:53;;;;;;;2.05;0.88;;;;;;;;;;5013544;28;20072;-58
2021/01/23 12:24:18;;;;;;;16.02;2.30;;;;;;;;;;4999549;28;20384;-58
2021/01/23 12:26:44;;;;;;;3.25;1.80;;;;;;;;;;5017733;28;20048;-56
2021/01/23 12:29:09;;;;;;;24.83;4.85;;;;;;;;;;5017189;28;20408;-55
2021/01/23 12:31:34;;;;;;;10.98;3.92;;;;;;;;;;5015784;28;20427;-57
2021/01/23 12:34:00;;;;;;;7.90;2.58;;;;;;;;;;5022927;28;20040;-55
2021/01/23 12:36:25;;;;;;;4.78;1.52;;;;;;;;;;5014138;28;20045;-55
2021/01/23 12:38:50;;;;;;;11.73;2.38;;;;;;;;;;5016856;28;20030;-57
2021/01/23 12:41:16;;;;;;;8.38;1.85;;;;;;;;;;5017829;28;20014;-59
2021/01/23 12:43:41;;;;;;;16.42;3.08;;;;;;;;;;5013029;28;20533;-56
2021/01/23 12:46:06;;;;;;;6.38;2.17;;;;;;;;;;5002110;28;20046;-53
2021/01/23 12:48:32;;;;;;;13.35;4.35;;;;;;;;;;5014716;28;20048;-58
2021/01/23 12:50:57;;;;;;;8.45;3.17;;;;;;;;;;5012596;28;20496;-53
2021/01/23 12:53:22;;;;;;;6.28;3.15;;;;;;;;;;5015216;28;20021;-56
2021/01/23 12:55:47;;;;;;;15.65;4.05;;;;;;;;;;5017933;28;20021;-60
2021/01/23 12:58:13;;;;;;;4.22;1.58;;;;;;;;;;5034287;28;20035;-58
2021/01/23 13:00:38;;;;;;;10.93;3.08;;;;;;;;;;5030164;28;20033;-62
2021/01/23 13:03:04;;;;;;;14.25;2.25;;;;;;;;;;5025557;28;20025;-60
2021/01/23 13:05:30;;;;;;;8.00;2.50;;;;;;;;;;5028934;28;20026;-56
2021/01/23 13:07:55;;;;;;;15.13;3.47;;;;;;;;;;5029680;28;20112;-60
2021/01/23 13:10:20;;;;;;;8.15;3.85;;;;;;;;;;5026994;28;20021;-56
2021/01/23 13:12:47;;;;;;;11.90;5.68;;;;;;;;;;5029270;28;20053;-60
2021/01/23 13:15:15;;;;;;;12.43;5.60;;;;;;;;;;5031489;28;20013;-57
2021/01/23 13:17:41;;;;;;;14.35;3.05;;;;;;;;;;5027486;28;20037;-56
2021/01/23 13:20:07;;;;;;;4.93;2.72;;;;;;;;;;5030909;28;20030;-56
2021/01/23 13:22:32;;;;;;;8.82;2.67;;;;;;;;;;5028287;28;20893;-58
2021/01/23 13:24:58;;;;;;;9.52;3.78;;;;;;;;;;5028305;28;20124;-58
2021/01/23 13:27:23;;;;;;;4.30;3.45;;;;;;;;;;5012533;28;20026;-56
2021/01/23 13:29:48;;;;;;;7.47;4.35;;;;;;;;;;5011391;28;20456;-58
2021/01/23 13:32:13;;;;;;;9.23;3.58;;;;;;;;;;5015277;28;20057;-58
2021/01/23 13:34:39;;;;;;;18.42;4.35;;;;;;;;;;5010288;28;20133;-59
2021/01/23 13:37:05;;;;;;;9.70;3.78;;;;;;;;;;5013114;28;20044;-58
2021/01/23 13:39:30;;;;;;;5.65;3.42;;;;;;;;;;5009665;28;20412;-58
2021/01/23 13:41:56;;;;;;;20.38;4.65;;;;;;;;;;5019850;28;20029;-58
2021/01/23 13:44:22;;;;;;;14.20;4.78;;;;;;;;;;5010516;28;20029;-57
2021/01/23 13:46:47;;;;;;;17.88;6.38;;;;;;;;;;5013573;28;20021;-60
2021/01/23 13:49:12;;;;;;;11.35;2.88;;;;;;;;;;5009460;28;20044;-60
2021/01/23 13:51:37;;;;;;;11.27;3.15;;;;;;;;;;5012278;28;20029;-60
2021/01/23 13:54:03;;;;;;;15.85;4.32;;;;;;;;;;5013703;28;20030;-61
2021/01/23 13:56:28;;;;;;;5.90;2.42;;;;;;;;;;5015698;28;20048;-61
2021/01/23 13:58:53;;;;;;;12.98;3.78;;;;;;;;;;5007524;28;20371;-60
2021/01/23 14:01:19;;;;;;;9.90;3.42;;;;;;;;;;5011146;28;20505;-60
2021/01/23 14:03:44;;;;;;;14.25;3.72;;;;;;;;;;5010094;28;20022;-59
2021/01/23 14:06:09;;;;;;;7.95;3.78;;;;;;;;;;5018366;28;20495;-60
2021/01/23 14:08:35;;;;;;;7.80;4.00;;;;;;;;;;5005788;28;20029;-61
2021/01/23 14:11:00;;;;;;;16.08;2.75;;;;;;;;;;5024102;28;20021;-62
2021/01/23 14:13:25;;;;;;;14.52;4.35;;;;;;;;;;5014251;28;20813;-60
2021/01/23 14:15:50;;;;;;;7.68;3.40;;;;;;;;;;4997460;28;20451;-60
2021/01/23 14:18:16;;;;;;;11.43;3.42;;;;;;;;;;5019424;28;20076;-60
2021/01/23 14:20:41;;;;;;;7.43;3.22;;;;;;;;;;5012279;28;20511;-59
2021/01/23 14:23:06;;;;;;;5.47;2.28;;;;;;;;;;5017535;28;20029;-53
2021/01/23 14:25:32;;;;;;;12.07;3.63;;;;;;;;;;5023591;28;20029;-60
2021/01/23 14:27:57;;;;;;;11.27;4.03;;;;;;;;;;5028822;28;20507;-57
2021/01/23 14:30:22;;;;;;;23.85;4.93;;;;;;;;;;5028589;28;20034;-57
2021/01/23 14:32:48;;;;;;;18.55;4.57;;;;;;;;;;5031167;28;20445;-61
2021/01/23 14:35:13;;;;;;;20.13;4.72;;;;;;;;;;5029107;28;20028;-60